sensor_id;sensor_type;location;lat;lon;timestamp;P1;durP1;ratioP1;P2;durP2;ratioP2
69943;SDS011;57257;48.408;-4.498;2022-07-17T00:00:40;7.25;;;6.75;;
69943;SDS011;57257;48.408;-4.498;2022-07-17T00:03:12;8.00;;;8.00;;
69943;SDS011;57257;48.408;-4.498;2022-07-17T00:05:39;8.00;;;8.00;;
69943;SDS011;57257;48.408;-4.498;2022-07-17T00:08:06;8.25;;;7.50;;
69943;SDS011;57257;48.408;-4.498;2022-07-17T00:10:32;7.75;;;7.00;;
69943;SDS011;57257;48.408;-4.498;2022-07-17T00:12:58;5.75;;;5.00;;
69943;SDS011;57257;48.408;-4.498;2022-07-17T00:15:24;7.00;;;7.00;;
69943;SDS011;57257;48.408;-4.498;2022-07-17T00:17:49;7.75;;;7.75;;
69943;SDS011;57257;48.408;-4.498;2022-07-17T00:20:15;9.75;;;7.50;;
69943;SDS011;57257;48.408;-4.498;2022-07-17T00:22:40;13.25;;;13.25;;
69943;SDS011;57257;48.408;-4.498;2022-07-17T00:25:08;18.00;;;15.25;;
69943;SDS011;57257;48.408;-4.498;2022-07-17T00:27:34;19.00;;;16.00;;
69943;SDS011;57257;48.408;-4.498;2022-07-17T00:30:00;15.50;;;13.00;;
69943;SDS011;57257;48.408;-4.498;2022-07-17T00:32:25;15.75;;;15.75;;
69943;SDS011;57257;48.408;-4.498;2022-07-17T00:34:51;20.25;;;19.75;;
69943;SDS011;57257;48.408;-4.498;2022-07-17T00:37:17;15.25;;;15.25;;
69943;SDS011;57257;48.408;-4.498;2022-07-17T00:39:42;17.00;;;15.25;;
69943;SDS011;57257;48.408;-4.498;2022-07-17T00:42:12;16.50;;;13.25;;
69943;SDS011;57257;48.408;-4.498;2022-07-17T00:44:37;10.00;;;10.00;;
69943;SDS011;57257;48.408;-4.498;2022-07-17T00:47:09;11.75;;;8.75;;
69943;SDS011;57257;48.408;-4.498;2022-07-17T00:49:42;9.00;;;8.25;;
69943;SDS011;57257;48.408;-4.498;2022-07-17T00:52:08;9.75;;;8.25;;
69943;SDS011;57257;48.408;-4.498;2022-07-17T00:54:35;9.25;;;8.00;;
69943;SDS011;57257;48.408;-4.498;2022-07-17T00:57:03;7.00;;;7.00;;
69943;SDS011;57257;48.408;-4.498;2022-07-17T00:59:32;8.00;;;7.00;;
69943;SDS011;57257;48.408;-4.498;2022-07-17T01:01:59;4.00;;;4.00;;
69943;SDS011;57257;48.408;-4.498;2022-07-17T01:04:29;7.00;;;6.00;;
69943;SDS011;57257;48.408;-4.498;2022-07-17T01:06:54;5.00;;;4.75;;
69943;SDS011;57257;48.408;-4.498;2022-07-17T01:09:19;7.00;;;7.00;;
69943;SDS011;57257;48.408;-4.498;2022-07-17T01:11:45;6.25;;;6.25;;
69943;SDS011;57257;48.408;-4.498;2022-07-17T01:14:10;6.25;;;6.25;;
69943;SDS011;57257;48.408;-4.498;2022-07-17T01:16:36;7.00;;;7.00;;
69943;SDS011;57257;48.408;-4.498;2022-07-17T01:19:02;7.75;;;6.25;;
69943;SDS011;57257;48.408;-4.498;2022-07-17T01:21:36;6.75;;;6.75;;
69943;SDS011;57257;48.408;-4.498;2022-07-17T01:24:06;4.50;;;4.50;;
69943;SDS011;57257;48.408;-4.498;2022-07-17T01:26:31;6.00;;;6.00;;
69943;SDS011;57257;48.408;-4.498;2022-07-17T01:28:57;5.00;;;3.50;;
69943;SDS011;57257;48.408;-4.498;2022-07-17T01:31:22;6.00;;;6.00;;
69943;SDS011;57257;48.408;-4.498;2022-07-17T01:33:48;8.00;;;6.50;;
69943;SDS011;57257;48.408;-4.498;2022-07-17T01:36:14;6.00;;;6.00;;
69943;SDS011;57257;48.408;-4.498;2022-07-17T01:38:39;6.50;;;6.50;;
69943;SDS011;57257;48.408;-4.498;2022-07-17T01:41:05;8.25;;;6.00;;
69943;SDS011;57257;48.408;-4.498;2022-07-17T01:43:30;6.25;;;6.25;;
69943;SDS011;57257;48.408;-4.498;2022-07-17T01:45:55;8.00;;;5.00;;
69943;SDS011;57257;48.408;-4.498;2022-07-17T01:48:27;5.50;;;5.50;;
69943;SDS011;57257;48.408;-4.498;2022-07-17T01:50:54;6.00;;;6.00;;
69943;SDS011;57257;48.408;-4.498;2022-07-17T01:53:20;7.00;;;5.00;;
69943;SDS011;57257;48.408;-4.498;2022-07-17T01:55:46;6.75;;;6.25;;
69943;SDS011;57257;48.408;-4.498;2022-07-17T01:58:12;4.75;;;4.75;;
69943;SDS011;57257;48.408;-4.498;2022-07-17T02:00:38;5.75;;;5.75;;
69943;SDS011;57257;48.408;-4.498;2022-07-17T02:03:04;7.50;;;6.00;;
69943;SDS011;57257;48.408;-4.498;2022-07-17T02:05:30;5.50;;;5.00;;
69943;SDS011;57257;48.408;-4.498;2022-07-17T02:07:55;7.50;;;5.75;;
69943;SDS011;57257;48.408;-4.498;2022-07-17T02:10:21;6.00;;;6.00;;
69943;SDS011;57257;48.408;-4.498;2022-07-17T02:12:46;5.00;;;5.00;;
69943;SDS011;57257;48.408;-4.498;2022-07-17T02:15:12;5.50;;;4.75;;
69943;SDS011;57257;48.408;-4.498;2022-07-17T02:17:39;6.00;;;4.25;;
69943;SDS011;57257;48.408;-4.498;2022-07-17T02:20:06;6.25;;;6.25;;
69943;SDS011;57257;48.408;-4.498;2022-07-17T02:22:32;4.25;;;4.25;;
69943;SDS011;57257;48.408;-4.498;2022-07-17T02:24:58;7.00;;;5.25;;
69943;SDS011;57257;48.408;-4.498;2022-07-17T02:27:24;5.25;;;5.00;;
69943;SDS011;57257;48.408;-4.498;2022-07-17T02:29:49;5.00;;;5.00;;
69943;SDS011;57257;48.408;-4.498;2022-07-17T02:32:15;6.00;;;5.00;;
69943;SDS011;57257;48.408;-4.498;2022-07-17T02:34:40;5.25;;;5.25;;
69943;SDS011;57257;48.408;-4.498;2022-07-17T02:37:06;8.00;;;5.75;;
69943;SDS011;57257;48.408;-4.498;2022-07-17T02:39:31;3.25;;;2.25;;
69943;SDS011;57257;48.408;-4.498;2022-07-17T02:41:57;6.00;;;4.00;;
69943;SDS011;57257;48.408;-4.498;2022-07-17T02:44:22;4.25;;;4.25;;
69943;SDS011;57257;48.408;-4.498;2022-07-17T02:46:48;4.00;;;4.00;;
69943;SDS011;57257;48.408;-4.498;2022-07-17T02:49:13;4.75;;;4.75;;
69943;SDS011;57257;48.408;-4.498;2022-07-17T02:51:38;5.00;;;5.00;;
69943;SDS011;57257;48.408;-4.498;2022-07-17T02:54:04;6.75;;;5.00;;
69943;SDS011;57257;48.408;-4.498;2022-07-17T02:56:29;5.75;;;5.00;;
69943;SDS011;57257;48.408;-4.498;2022-07-17T02:58:55;8.00;;;6.00;;
69943;SDS011;57257;48.408;-4.498;2022-07-17T03:01:20;6.75;;;6.25;;
69943;SDS011;57257;48.408;-4.498;2022-07-17T03:03:46;6.75;;;6.25;;
69943;SDS011;57257;48.408;-4.498;2022-07-17T03:06:11;7.50;;;5.75;;
69943;SDS011;57257;48.408;-4.498;2022-07-17T03:08:36;5.00;;;5.00;;
69943;SDS011;57257;48.408;-4.498;2022-07-17T03:11:02;6.50;;;6.50;;
69943;SDS011;57257;48.408;-4.498;2022-07-17T03:13:27;7.25;;;6.00;;
69943;SDS011;57257;48.408;-4.498;2022-07-17T03:15:53;6.75;;;5.00;;
69943;SDS011;57257;48.408;-4.498;2022-07-17T03:18:19;4.00;;;4.00;;
69943;SDS011;57257;48.408;-4.498;2022-07-17T03:20:44;6.00;;;6.00;;
69943;SDS011;57257;48.408;-4.498;2022-07-17T03:23:10;5.00;;;5.00;;
69943;SDS011;57257;48.408;-4.498;2022-07-17T03:25:35;6.00;;;6.00;;
69943;SDS011;57257;48.408;-4.498;2022-07-17T03:28:01;6.50;;;6.50;;
69943;SDS011;57257;48.408;-4.498;2022-07-17T03:30:27;7.00;;;5.25;;
69943;SDS011;57257;48.408;-4.498;2022-07-17T03:32:52;8.50;;;6.25;;
69943;SDS011;57257;48.408;-4.498;2022-07-17T03:35:18;5.00;;;5.00;;
69943;SDS011;57257;48.408;-4.498;2022-07-17T03:37:43;6.25;;;6.25;;
69943;SDS011;57257;48.408;-4.498;2022-07-17T03:40:09;5.25;;;5.25;;
69943;SDS011;57257;48.408;-4.498;2022-07-17T03:42:35;6.25;;;6.25;;
69943;SDS011;57257;48.408;-4.498;2022-07-17T03:45:01;6.75;;;6.50;;
69943;SDS011;57257;48.408;-4.498;2022-07-17T03:47:26;5.75;;;5.75;;
69943;SDS011;57257;48.408;-4.498;2022-07-17T03:49:52;6.00;;;6.00;;
69943;SDS011;57257;48.408;-4.498;2022-07-17T03:52:17;6.00;;;5.25;;
69943;SDS011;57257;48.408;-4.498;2022-07-17T03:54:43;5.00;;;5.00;;
69943;SDS011;57257;48.408;-4.498;2022-07-17T03:57:08;6.00;;;5.75;;
69943;SDS011;57257;48.408;-4.498;2022-07-17T03:59:34;7.00;;;7.00;;
69943;SDS011;57257;48.408;-4.498;2022-07-17T04:01:59;5.25;;;5.00;;
69943;SDS011;57257;48.408;-4.498;2022-07-17T04:04:24;6.25;;;6.25;;
69943;SDS011;57257;48.408;-4.498;2022-07-17T04:06:50;10.50;;;8.00;;
69943;SDS011;57257;48.408;-4.498;2022-07-17T04:09:15;6.00;;;6.00;;
69943;SDS011;57257;48.408;-4.498;2022-07-17T04:11:41;6.00;;;6.00;;
69943;SDS011;57257;48.408;-4.498;2022-07-17T04:14:06;6.50;;;6.00;;
69943;SDS011;57257;48.408;-4.498;2022-07-17T04:16:32;7.00;;;6.00;;
69943;SDS011;57257;48.408;-4.498;2022-07-17T04:18:57;8.00;;;6.00;;
69943;SDS011;57257;48.408;-4.498;2022-07-17T04:21:23;6.00;;;6.00;;
69943;SDS011;57257;48.408;-4.498;2022-07-17T04:23:49;8.00;;;6.50;;
69943;SDS011;57257;48.408;-4.498;2022-07-17T04:26:14;5.50;;;5.50;;
69943;SDS011;57257;48.408;-4.498;2022-07-17T04:28:40;6.00;;;6.00;;
69943;SDS011;57257;48.408;-4.498;2022-07-17T04:31:06;6.75;;;6.00;;
69943;SDS011;57257;48.408;-4.498;2022-07-17T04:33:31;7.75;;;6.00;;
69943;SDS011;57257;48.408;-4.498;2022-07-17T04:35:57;6.50;;;6.00;;
69943;SDS011;57257;48.408;-4.498;2022-07-17T04:38:22;6.00;;;6.00;;
69943;SDS011;57257;48.408;-4.498;2022-07-17T04:40:48;6.75;;;6.00;;
69943;SDS011;57257;48.408;-4.498;2022-07-17T04:43:13;7.50;;;6.25;;
69943;SDS011;57257;48.408;-4.498;2022-07-17T04:45:39;5.25;;;5.25;;
69943;SDS011;57257;48.408;-4.498;2022-07-17T04:48:04;3.50;;;3.50;;
69943;SDS011;57257;48.408;-4.498;2022-07-17T04:50:30;9.00;;;6.25;;
69943;SDS011;57257;48.408;-4.498;2022-07-17T04:52:56;5.50;;;5.50;;
69943;SDS011;57257;48.408;-4.498;2022-07-17T04:55:22;6.50;;;6.50;;
69943;SDS011;57257;48.408;-4.498;2022-07-17T04:57:48;8.25;;;5.00;;
69943;SDS011;57257;48.408;-4.498;2022-07-17T05:00:13;7.00;;;6.00;;
69943;SDS011;57257;48.408;-4.498;2022-07-17T05:02:40;5.00;;;5.00;;
69943;SDS011;57257;48.408;-4.498;2022-07-17T05:05:05;5.00;;;5.00;;
69943;SDS011;57257;48.408;-4.498;2022-07-17T05:07:32;6.25;;;5.50;;
69943;SDS011;57257;48.408;-4.498;2022-07-17T05:09:57;5.50;;;5.50;;
69943;SDS011;57257;48.408;-4.498;2022-07-17T05:12:22;5.75;;;5.75;;
69943;SDS011;57257;48.408;-4.498;2022-07-17T05:14:48;6.00;;;6.00;;
69943;SDS011;57257;48.408;-4.498;2022-07-17T05:17:13;6.25;;;5.75;;
69943;SDS011;57257;48.408;-4.498;2022-07-17T05:19:39;6.75;;;6.75;;
69943;SDS011;57257;48.408;-4.498;2022-07-17T05:22:05;6.25;;;6.00;;
69943;SDS011;57257;48.408;-4.498;2022-07-17T05:24:30;7.50;;;7.00;;
69943;SDS011;57257;48.408;-4.498;2022-07-17T05:26:58;6.00;;;6.00;;
69943;SDS011;57257;48.408;-4.498;2022-07-17T05:29:24;7.00;;;6.75;;
69943;SDS011;57257;48.408;-4.498;2022-07-17T05:31:49;6.75;;;5.00;;
69943;SDS011;57257;48.408;-4.498;2022-07-17T05:34:15;5.00;;;5.00;;
69943;SDS011;57257;48.408;-4.498;2022-07-17T05:36:40;4.00;;;4.00;;
69943;SDS011;57257;48.408;-4.498;2022-07-17T05:39:06;5.00;;;5.00;;
69943;SDS011;57257;48.408;-4.498;2022-07-17T05:41:31;6.00;;;6.00;;
69943;SDS011;57257;48.408;-4.498;2022-07-17T05:43:56;6.00;;;6.00;;
69943;SDS011;57257;48.408;-4.498;2022-07-17T05:46:22;5.75;;;5.00;;
69943;SDS011;57257;48.408;-4.498;2022-07-17T05:48:47;7.75;;;5.25;;
69943;SDS011;57257;48.408;-4.498;2022-07-17T05:51:13;4.00;;;3.00;;
69943;SDS011;57257;48.408;-4.498;2022-07-17T05:53:38;4.50;;;4.50;;
69943;SDS011;57257;48.408;-4.498;2022-07-17T05:56:03;5.75;;;5.75;;
69943;SDS011;57257;48.408;-4.498;2022-07-17T05:58:29;5.75;;;5.75;;
69943;SDS011;57257;48.408;-4.498;2022-07-17T06:00:54;4.25;;;4.25;;
69943;SDS011;57257;48.408;-4.498;2022-07-17T06:03:20;7.00;;;5.25;;
69943;SDS011;57257;48.408;-4.498;2022-07-17T06:05:45;6.75;;;6.75;;
69943;SDS011;57257;48.408;-4.498;2022-07-17T06:08:11;5.75;;;5.75;;
69943;SDS011;57257;48.408;-4.498;2022-07-17T06:10:36;6.50;;;5.50;;
69943;SDS011;57257;48.408;-4.498;2022-07-17T06:13:03;4.00;;;4.00;;
69943;SDS011;57257;48.408;-4.498;2022-07-17T06:15:29;6.25;;;6.25;;
69943;SDS011;57257;48.408;-4.498;2022-07-17T06:17:54;7.00;;;6.00;;
69943;SDS011;57257;48.408;-4.498;2022-07-17T06:20:20;5.25;;;5.00;;
69943;SDS011;57257;48.408;-4.498;2022-07-17T06:22:45;7.25;;;5.25;;
69943;SDS011;57257;48.408;-4.498;2022-07-17T06:25:11;6.00;;;6.00;;
69943;SDS011;57257;48.408;-4.498;2022-07-17T06:27:40;6.00;;;6.00;;
69943;SDS011;57257;48.408;-4.498;2022-07-17T06:30:10;5.00;;;5.00;;
69943;SDS011;57257;48.408;-4.498;2022-07-17T06:32:37;8.00;;;5.75;;
69943;SDS011;57257;48.408;-4.498;2022-07-17T06:35:03;8.00;;;6.75;;
69943;SDS011;57257;48.408;-4.498;2022-07-17T06:37:29;5.50;;;5.50;;
69943;SDS011;57257;48.408;-4.498;2022-07-17T06:39:55;5.50;;;5.50;;
69943;SDS011;57257;48.408;-4.498;2022-07-17T06:42:20;6.25;;;6.25;;
69943;SDS011;57257;48.408;-4.498;2022-07-17T06:44:47;8.00;;;6.75;;
69943;SDS011;57257;48.408;-4.498;2022-07-17T06:47:12;5.50;;;5.50;;
69943;SDS011;57257;48.408;-4.498;2022-07-17T06:49:37;6.75;;;6.50;;
69943;SDS011;57257;48.408;-4.498;2022-07-17T06:52:03;6.25;;;6.25;;
69943;SDS011;57257;48.408;-4.498;2022-07-17T06:54:29;6.25;;;5.00;;
69943;SDS011;57257;48.408;-4.498;2022-07-17T06:56:54;10.00;;;8.25;;
69943;SDS011;57257;48.408;-4.498;2022-07-17T06:59:20;5.25;;;5.25;;
69943;SDS011;57257;48.408;-4.498;2022-07-17T07:01:46;8.75;;;7.00;;
69943;SDS011;57257;48.408;-4.498;2022-07-17T07:04:12;5.25;;;5.25;;
69943;SDS011;57257;48.408;-4.498;2022-07-17T07:06:37;6.00;;;6.00;;
69943;SDS011;57257;48.408;-4.498;2022-07-17T07:09:03;7.25;;;5.50;;
69943;SDS011;57257;48.408;-4.498;2022-07-17T07:11:28;3.25;;;3.00;;
69943;SDS011;57257;48.408;-4.498;2022-07-17T07:13:54;5.00;;;5.00;;
69943;SDS011;57257;48.408;-4.498;2022-07-17T07:16:20;5.00;;;5.00;;
69943;SDS011;57257;48.408;-4.498;2022-07-17T07:18:45;6.00;;;6.00;;
69943;SDS011;57257;48.408;-4.498;2022-07-17T07:21:11;6.00;;;6.00;;
69943;SDS011;57257;48.408;-4.498;2022-07-17T07:23:36;6.50;;;6.00;;
69943;SDS011;57257;48.408;-4.498;2022-07-17T07:26:02;6.00;;;5.50;;
69943;SDS011;57257;48.408;-4.498;2022-07-17T07:28:28;9.00;;;6.00;;
69943;SDS011;57257;48.408;-4.498;2022-07-17T07:30:54;6.00;;;6.00;;
69943;SDS011;57257;48.408;-4.498;2022-07-17T07:33:19;7.75;;;7.00;;
69943;SDS011;57257;48.408;-4.498;2022-07-17T07:35:45;6.00;;;6.00;;
69943;SDS011;57257;48.408;-4.498;2022-07-17T07:38:10;6.75;;;6.50;;
69943;SDS011;57257;48.408;-4.498;2022-07-17T07:40:36;6.50;;;5.75;;
69943;SDS011;57257;48.408;-4.498;2022-07-17T07:43:02;7.00;;;6.00;;
69943;SDS011;57257;48.408;-4.498;2022-07-17T07:45:28;4.00;;;3.25;;
69943;SDS011;57257;48.408;-4.498;2022-07-17T07:47:53;4.75;;;4.75;;
69943;SDS011;57257;48.408;-4.498;2022-07-17T07:50:21;5.75;;;5.75;;
69943;SDS011;57257;48.408;-4.498;2022-07-17T07:52:47;7.00;;;7.00;;
69943;SDS011;57257;48.408;-4.498;2022-07-17T07:55:13;5.00;;;5.00;;
69943;SDS011;57257;48.408;-4.498;2022-07-17T07:57:39;5.00;;;5.00;;
69943;SDS011;57257;48.408;-4.498;2022-07-17T08:00:05;7.00;;;6.00;;
69943;SDS011;57257;48.408;-4.498;2022-07-17T08:02:32;4.75;;;4.75;;
69943;SDS011;57257;48.408;-4.498;2022-07-17T08:04:58;6.00;;;5.00;;
69943;SDS011;57257;48.408;-4.498;2022-07-17T08:07:25;6.00;;;5.75;;
69943;SDS011;57257;48.408;-4.498;2022-07-17T08:09:51;6.25;;;6.00;;
69943;SDS011;57257;48.408;-4.498;2022-07-17T08:12:16;6.25;;;6.25;;
69943;SDS011;57257;48.408;-4.498;2022-07-17T08:14:42;6.00;;;6.00;;
69943;SDS011;57257;48.408;-4.498;2022-07-17T08:17:07;9.00;;;7.25;;
69943;SDS011;57257;48.408;-4.498;2022-07-17T08:19:33;6.00;;;6.00;;
69943;SDS011;57257;48.408;-4.498;2022-07-17T08:21:58;6.50;;;6.50;;
69943;SDS011;57257;48.408;-4.498;2022-07-17T08:24:23;6.25;;;6.25;;
69943;SDS011;57257;48.408;-4.498;2022-07-17T08:26:49;7.50;;;7.00;;
69943;SDS011;57257;48.408;-4.498;2022-07-17T08:29:14;5.25;;;5.25;;
69943;SDS011;57257;48.408;-4.498;2022-07-17T08:31:41;5.00;;;5.00;;
69943;SDS011;57257;48.408;-4.498;2022-07-17T08:34:06;7.25;;;7.25;;
69943;SDS011;57257;48.408;-4.498;2022-07-17T08:36:32;7.00;;;6.25;;
69943;SDS011;57257;48.408;-4.498;2022-07-17T08:38:57;4.50;;;4.50;;
69943;SDS011;57257;48.408;-4.498;2022-07-17T08:41:22;8.25;;;7.00;;
69943;SDS011;57257;48.408;-4.498;2022-07-17T08:43:49;7.25;;;6.00;;
69943;SDS011;57257;48.408;-4.498;2022-07-17T08:46:16;5.00;;;5.00;;
69943;SDS011;57257;48.408;-4.498;2022-07-17T08:48:42;5.00;;;5.00;;
69943;SDS011;57257;48.408;-4.498;2022-07-17T08:51:11;7.75;;;6.50;;
69943;SDS011;57257;48.408;-4.498;2022-07-17T08:53:36;8.00;;;6.50;;
69943;SDS011;57257;48.408;-4.498;2022-07-17T08:56:03;4.75;;;4.75;;
69943;SDS011;57257;48.408;-4.498;2022-07-17T08:58:29;5.00;;;5.00;;
69943;SDS011;57257;48.408;-4.498;2022-07-17T09:00:55;6.00;;;6.00;;
69943;SDS011;57257;48.408;-4.498;2022-07-17T09:03:20;6.00;;;6.00;;
69943;SDS011;57257;48.408;-4.498;2022-07-17T09:05:48;8.25;;;7.00;;
69943;SDS011;57257;48.408;-4.498;2022-07-17T09:08:21;6.00;;;6.00;;
69943;SDS011;57257;48.408;-4.498;2022-07-17T09:10:50;6.75;;;6.75;;
69943;SDS011;57257;48.408;-4.498;2022-07-17T09:13:27;5.25;;;5.25;;
69943;SDS011;57257;48.408;-4.498;2022-07-17T09:18:44;6.25;;;5.50;;
69943;SDS011;57257;48.408;-4.498;2022-07-17T09:21:16;6.50;;;5.75;;
69943;SDS011;57257;48.408;-4.498;2022-07-17T09:23:43;5.50;;;5.50;;
69943;SDS011;57257;48.408;-4.498;2022-07-17T09:26:09;4.50;;;4.00;;
69943;SDS011;57257;48.408;-4.498;2022-07-17T09:28:43;6.25;;;5.50;;
69943;SDS011;57257;48.408;-4.498;2022-07-17T09:31:09;5.25;;;5.25;;
69943;SDS011;57257;48.408;-4.498;2022-07-17T09:33:35;5.50;;;5.50;;
69943;SDS011;57257;48.408;-4.498;2022-07-17T09:36:08;6.00;;;6.00;;
69943;SDS011;57257;48.408;-4.498;2022-07-17T09:38:36;8.00;;;6.00;;
69943;SDS011;57257;48.408;-4.498;2022-07-17T09:41:08;8.50;;;7.00;;
69943;SDS011;57257;48.408;-4.498;2022-07-17T09:46:29;7.00;;;6.25;;
69943;SDS011;57257;48.408;-4.498;2022-07-17T09:48:57;6.00;;;5.00;;
69943;SDS011;57257;48.408;-4.498;2022-07-17T09:51:26;6.75;;;5.00;;
69943;SDS011;57257;48.408;-4.498;2022-07-17T09:53:55;7.00;;;6.25;;
69943;SDS011;57257;48.408;-4.498;2022-07-17T09:56:23;8.00;;;7.00;;
69943;SDS011;57257;48.408;-4.498;2022-07-17T09:58:51;3.00;;;3.00;;
69943;SDS011;57257;48.408;-4.498;2022-07-17T10:01:26;6.00;;;6.00;;
69943;SDS011;57257;48.408;-4.498;2022-07-17T10:03:52;11.00;;;7.25;;
69943;SDS011;57257;48.408;-4.498;2022-07-17T10:06:18;7.75;;;6.25;;
69943;SDS011;57257;48.408;-4.498;2022-07-17T10:08:45;6.00;;;6.00;;
69943;SDS011;57257;48.408;-4.498;2022-07-17T10:11:11;7.50;;;6.25;;
69943;SDS011;57257;48.408;-4.498;2022-07-17T10:13:40;7.00;;;7.00;;
69943;SDS011;57257;48.408;-4.498;2022-07-17T10:16:08;6.50;;;6.00;;
69943;SDS011;57257;48.408;-4.498;2022-07-17T10:18:37;9.75;;;7.50;;
69943;SDS011;57257;48.408;-4.498;2022-07-17T10:23:34;5.50;;;5.50;;
69943;SDS011;57257;48.408;-4.498;2022-07-17T10:26:00;7.00;;;7.00;;
69943;SDS011;57257;48.408;-4.498;2022-07-17T10:28:43;9.25;;;6.25;;
69943;SDS011;57257;48.408;-4.498;2022-07-17T10:31:22;3.75;;;3.75;;
69943;SDS011;57257;48.408;-4.498;2022-07-17T10:33:59;5.50;;;5.50;;
69943;SDS011;57257;48.408;-4.498;2022-07-17T10:36:38;6.25;;;5.75;;
69943;SDS011;57257;48.408;-4.498;2022-07-17T10:39:19;7.50;;;5.75;;
69943;SDS011;57257;48.408;-4.498;2022-07-17T10:41:55;6.25;;;6.25;;
69943;SDS011;57257;48.408;-4.498;2022-07-17T10:44:26;6.50;;;6.50;;
69943;SDS011;57257;48.408;-4.498;2022-07-17T10:46:53;5.25;;;5.25;;
69943;SDS011;57257;48.408;-4.498;2022-07-17T10:49:19;8.00;;;6.00;;
69943;SDS011;57257;48.408;-4.498;2022-07-17T10:51:48;5.00;;;5.00;;
69943;SDS011;57257;48.408;-4.498;2022-07-17T10:54:14;6.00;;;6.00;;
69943;SDS011;57257;48.408;-4.498;2022-07-17T10:56:39;7.75;;;7.00;;
69943;SDS011;57257;48.408;-4.498;2022-07-17T10:59:05;13.50;;;11.75;;
69943;SDS011;57257;48.408;-4.498;2022-07-17T11:01:31;7.75;;;7.75;;
69943;SDS011;57257;48.408;-4.498;2022-07-17T11:03:58;12.25;;;10.50;;
69943;SDS011;57257;48.408;-4.498;2022-07-17T11:09:08;9.25;;;8.25;;
69943;SDS011;57257;48.408;-4.498;2022-07-17T11:11:39;6.00;;;5.25;;
69943;SDS011;57257;48.408;-4.498;2022-07-17T11:14:15;7.50;;;7.00;;
69943;SDS011;57257;48.408;-4.498;2022-07-17T11:19:28;6.00;;;6.00;;
69943;SDS011;57257;48.408;-4.498;2022-07-17T11:21:56;6.00;;;6.00;;
69943;SDS011;57257;48.408;-4.498;2022-07-17T11:24:23;5.50;;;5.50;;
69943;SDS011;57257;48.408;-4.498;2022-07-17T11:26:51;6.25;;;6.25;;
69943;SDS011;57257;48.408;-4.498;2022-07-17T11:29:17;6.50;;;6.00;;
69943;SDS011;57257;48.408;-4.498;2022-07-17T11:31:43;6.00;;;6.00;;
69943;SDS011;57257;48.408;-4.498;2022-07-17T11:34:09;6.00;;;6.00;;
69943;SDS011;57257;48.408;-4.498;2022-07-17T11:36:40;6.50;;;5.25;;
69943;SDS011;57257;48.408;-4.498;2022-07-17T11:39:12;8.00;;;6.25;;
69943;SDS011;57257;48.408;-4.498;2022-07-17T11:44:18;7.25;;;6.00;;
69943;SDS011;57257;48.408;-4.498;2022-07-17T11:46:46;6.00;;;4.50;;
69943;SDS011;57257;48.408;-4.498;2022-07-17T11:49:32;6.25;;;5.00;;
69943;SDS011;57257;48.408;-4.498;2022-07-17T11:52:07;8.25;;;6.00;;
69943;SDS011;57257;48.408;-4.498;2022-07-17T11:57:19;5.75;;;5.75;;
69943;SDS011;57257;48.408;-4.498;2022-07-17T11:59:46;7.75;;;6.00;;
69943;SDS011;57257;48.408;-4.498;2022-07-17T12:02:16;5.75;;;5.50;;
69943;SDS011;57257;48.408;-4.498;2022-07-17T12:07:21;7.25;;;5.25;;
69943;SDS011;57257;48.408;-4.498;2022-07-17T12:09:50;7.00;;;6.00;;
69943;SDS011;57257;48.408;-4.498;2022-07-17T12:12:22;5.75;;;5.75;;
69943;SDS011;57257;48.408;-4.498;2022-07-17T12:14:55;5.25;;;5.25;;
69943;SDS011;57257;48.408;-4.498;2022-07-17T12:17:22;5.00;;;5.00;;
69943;SDS011;57257;48.408;-4.498;2022-07-17T12:19:50;8.25;;;8.25;;
69943;SDS011;57257;48.408;-4.498;2022-07-17T12:22:15;6.75;;;6.75;;
69943;SDS011;57257;48.408;-4.498;2022-07-17T12:24:42;6.00;;;6.00;;
69943;SDS011;57257;48.408;-4.498;2022-07-17T12:27:11;5.25;;;5.25;;
69943;SDS011;57257;48.408;-4.498;2022-07-17T12:29:40;5.75;;;5.25;;
69943;SDS011;57257;48.408;-4.498;2022-07-17T12:32:07;5.25;;;5.25;;
69943;SDS011;57257;48.408;-4.498;2022-07-17T12:34:36;8.00;;;6.00;;
69943;SDS011;57257;48.408;-4.498;2022-07-17T12:37:03;5.75;;;5.75;;
69943;SDS011;57257;48.408;-4.498;2022-07-17T12:39:29;6.25;;;5.25;;
69943;SDS011;57257;48.408;-4.498;2022-07-17T12:41:55;8.75;;;7.25;;
69943;SDS011;57257;48.408;-4.498;2022-07-17T12:44:20;6.00;;;6.00;;
69943;SDS011;57257;48.408;-4.498;2022-07-17T12:46:46;6.00;;;6.00;;
69943;SDS011;57257;48.408;-4.498;2022-07-17T12:49:11;5.00;;;4.00;;
69943;SDS011;57257;48.408;-4.498;2022-07-17T12:51:36;8.25;;;7.75;;
69943;SDS011;57257;48.408;-4.498;2022-07-17T12:54:02;6.00;;;6.00;;
69943;SDS011;57257;48.408;-4.498;2022-07-17T12:56:27;7.50;;;6.00;;
69943;SDS011;57257;48.408;-4.498;2022-07-17T12:58:53;3.25;;;3.25;;
69943;SDS011;57257;48.408;-4.498;2022-07-17T13:01:18;6.25;;;6.25;;
69943;SDS011;57257;48.408;-4.498;2022-07-17T13:03:44;5.75;;;5.75;;
69943;SDS011;57257;48.408;-4.498;2022-07-17T13:06:09;6.50;;;6.50;;
69943;SDS011;57257;48.408;-4.498;2022-07-17T13:08:35;6.00;;;5.50;;
69943;SDS011;57257;48.408;-4.498;2022-07-17T13:11:01;5.00;;;5.00;;
69943;SDS011;57257;48.408;-4.498;2022-07-17T13:13:29;7.00;;;5.50;;
69943;SDS011;57257;48.408;-4.498;2022-07-17T13:15:55;5.50;;;5.50;;
69943;SDS011;57257;48.408;-4.498;2022-07-17T13:18:21;5.25;;;5.25;;
69943;SDS011;57257;48.408;-4.498;2022-07-17T13:20:46;5.25;;;5.25;;
69943;SDS011;57257;48.408;-4.498;2022-07-17T13:23:12;5.25;;;5.25;;
69943;SDS011;57257;48.408;-4.498;2022-07-17T13:25:38;5.00;;;5.00;;
69943;SDS011;57257;48.408;-4.498;2022-07-17T13:28:05;5.50;;;5.50;;
69943;SDS011;57257;48.408;-4.498;2022-07-17T13:30:31;5.50;;;5.50;;
69943;SDS011;57257;48.408;-4.498;2022-07-17T13:32:58;4.75;;;4.75;;
69943;SDS011;57257;48.408;-4.498;2022-07-17T13:35:24;6.00;;;5.00;;
69943;SDS011;57257;48.408;-4.498;2022-07-17T13:37:50;6.75;;;5.25;;
69943;SDS011;57257;48.408;-4.498;2022-07-17T13:40:15;9.25;;;7.25;;
69943;SDS011;57257;48.408;-4.498;2022-07-17T13:42:41;11.75;;;6.75;;
69943;SDS011;57257;48.408;-4.498;2022-07-17T13:45:06;4.75;;;4.75;;
69943;SDS011;57257;48.408;-4.498;2022-07-17T13:47:32;7.25;;;7.25;;
69943;SDS011;57257;48.408;-4.498;2022-07-17T13:49:57;6.25;;;6.25;;
69943;SDS011;57257;48.408;-4.498;2022-07-17T13:52:23;7.25;;;7.25;;
69943;SDS011;57257;48.408;-4.498;2022-07-17T13:54:48;6.00;;;6.00;;
69943;SDS011;57257;48.408;-4.498;2022-07-17T13:57:14;5.75;;;5.75;;
69943;SDS011;57257;48.408;-4.498;2022-07-17T13:59:39;5.00;;;5.00;;
69943;SDS011;57257;48.408;-4.498;2022-07-17T14:02:06;5.25;;;5.25;;
69943;SDS011;57257;48.408;-4.498;2022-07-17T14:04:33;5.75;;;5.75;;
69943;SDS011;57257;48.408;-4.498;2022-07-17T14:06:58;5.00;;;5.00;;
69943;SDS011;57257;48.408;-4.498;2022-07-17T14:09:23;4.00;;;2.25;;
69943;SDS011;57257;48.408;-4.498;2022-07-17T14:11:50;6.25;;;6.25;;
69943;SDS011;57257;48.408;-4.498;2022-07-17T14:14:15;5.75;;;5.75;;
69943;SDS011;57257;48.408;-4.498;2022-07-17T14:16:41;7.00;;;7.00;;
69943;SDS011;57257;48.408;-4.498;2022-07-17T14:19:06;6.50;;;6.50;;
69943;SDS011;57257;48.408;-4.498;2022-07-17T14:21:33;9.25;;;8.00;;
69943;SDS011;57257;48.408;-4.498;2022-07-17T14:24:00;6.75;;;5.00;;
69943;SDS011;57257;48.408;-4.498;2022-07-17T14:26:26;5.00;;;5.00;;
69943;SDS011;57257;48.408;-4.498;2022-07-17T14:28:52;5.00;;;4.75;;
69943;SDS011;57257;48.408;-4.498;2022-07-17T14:31:17;6.25;;;6.25;;
69943;SDS011;57257;48.408;-4.498;2022-07-17T14:33:43;6.00;;;6.00;;
69943;SDS011;57257;48.408;-4.498;2022-07-17T14:36:09;6.50;;;6.50;;
69943;SDS011;57257;48.408;-4.498;2022-07-17T14:38:35;6.50;;;6.00;;
69943;SDS011;57257;48.408;-4.498;2022-07-17T14:41:00;5.00;;;5.00;;
69943;SDS011;57257;48.408;-4.498;2022-07-17T14:43:27;6.25;;;6.25;;
69943;SDS011;57257;48.408;-4.498;2022-07-17T14:45:53;7.00;;;7.00;;
69943;SDS011;57257;48.408;-4.498;2022-07-17T14:48:18;4.75;;;4.75;;
69943;SDS011;57257;48.408;-4.498;2022-07-17T14:50:44;5.75;;;5.75;;